Time;durP1;ratioP1;P1;durP2;ratioP2;P2;SDS_P1;SDS_P2;PMS_P1;PMS_P2;Temp;Humidity;BMP_temperature;BMP_pressure;BME280_temperature;BME280_humidity;BME280_pressure;Samples;Min_cycle;Max_cycle;Signal;HPM_P1;HPM_P2
2023/04/28 00:09:11;;;;;;;66.10;49.70;;;;;;;0.64;72.19;99951.36;436548;1251;139052;-64
2023/04/28 00:19:17;;;;;;;58.60;46.50;;;;;;;0.75;72.58;99950.64;436525;1251;139920;-66
2023/04/28 00:29:22;;;;;;;48.80;39.30;;;;;;;0.75;72.68;99962.20;436281;1254;139216;-67
2023/04/28 00:39:28;;;;;;;55.80;42.00;;;;;;;0.73;73.18;99964.13;436350;1251;138956;-67
2023/04/28 00:49:35;;;;;;;53.20;42.00;;;;;;;0.63;73.21;99969.11;436392;1254;140426;-67
2023/04/28 00:59:41;;;;;;;62.60;38.70;;;;;;;0.53;73.29;99971.52;436277;1253;138855;-65
2023/04/28 01:09:46;;;;;;;48.50;33.70;;;;;;;0.36;73.65;99971.95;435981;1251;141373;-65
2023/04/28 01:19:52;;;;;;;41.90;31.00;;;;;;;0.12;73.71;99973.35;436154;1254;138902;-67
2023/04/28 01:29:58;;;;;;;43.80;33.40;;;;;;;-0.13;74.08;99977.66;436233;1254;141449;-66
2023/04/28 01:40:05;;;;;;;38.80;30.30;;;;;;;-0.37;74.74;99972.66;436221;1254;140744;-65
2023/04/28 01:50:11;;;;;;;39.40;28.70;;;;;;;-0.61;74.71;99972.59;436273;1251;139972;-65
2023/04/28 02:00:18;;;;;;;43.60;30.60;;;;;;;-0.82;75.19;99970.26;436631;1250;139121;-67
2023/04/28 02:10:24;;;;;;;42.80;28.60;;;;;;;-0.99;75.68;99974.23;437165;1250;139464;-67
2023/04/28 02:20:30;;;;;;;38.90;28.40;;;;;;;-1.12;75.87;99971.27;436697;1251;140825;-67
2023/04/28 02:30:37;;;;;;;38.40;28.60;;;;;;;-1.26;76.03;99970.19;436676;1254;139140;-66
2023/04/28 02:40:43;;;;;;;39.40;28.20;;;;;;;-1.39;76.42;99976.32;436437;1251;139055;-67
2023/04/28 02:50:49;;;;;;;42.00;31.10;;;;;;;-1.52;76.72;99983.81;436100;1250;139934;-66
2023/04/28 03:00:55;;;;;;;41.80;29.60;;;;;;;-1.61;77.64;99986.63;436692;1251;139510;-66
2023/04/28 03:11:01;;;;;;;42.80;27.80;;;;;;;-1.69;77.59;99985.31;436612;1250;139946;-67
2023/04/28 03:21:07;;;;;;;41.20;27.90;;;;;;;-1.73;78.50;99982.58;435997;1251;140664;-66
2023/04/28 03:31:12;;;;;;;38.70;26.80;;;;;;;-1.70;78.90;99981.38;436226;1251;140863;-67
2023/04/28 03:41:18;;;;;;;43.60;29.00;;;;;;;-1.59;79.17;99988.50;436156;1253;141156;-67
2023/04/28 03:51:24;;;;;;;39.80;26.80;;;;;;;-1.35;79.29;99987.79;436847;1250;139413;-67
2023/04/28 04:01:30;;;;;;;36.00;24.90;;;;;;;-0.93;79.84;99988.24;436713;1250;139583;-67
2023/04/28 04:11:36;;;;;;;33.60;22.90;;;;;;;-0.27;79.58;99988.52;436470;1254;139754;-67
2023/04/28 04:21:41;;;;;;;33.10;24.40;;;;;;;0.54;79.38;99989.23;436559;1250;139500;-67
2023/04/28 04:31:48;;;;;;;36.40;24.30;;;;;;;1.67;78.26;99992.31;436760;1250;139776;-66
2023/04/28 04:41:54;;;;;;;32.00;22.80;;;;;;;2.98;76.56;99991.86;436531;1250;139583;-67
2023/04/28 04:52:00;;;;;;;27.70;17.70;;;;;;;4.00;74.07;99986.60;436484;1250;140035;-67
2023/04/28 05:02:06;;;;;;;22.70;16.10;;;;;;;5.40;72.46;99985.58;436716;1254;139608;-67
2023/04/28 05:12:12;;;;;;;21.60;16.00;;;;;;;11.94;66.93;99974.45;436516;1251;138789;-67
2023/04/28 05:22:17;;;;;;;22.30;16.30;;;;;;;16.62;58.84;99966.93;436659;1254;140242;-66
2023/04/28 05:32:23;;;;;;;23.20;14.90;;;;;;;24.28;48.69;99953.47;436257;1253;139818;-67
2023/04/28 05:42:29;;;;;;;16.60;13.60;;;;;;;28.73;39.94;99943.05;436077;1254;139088;-62
2023/04/28 05:52:35;;;;;;;20.60;13.50;;;;;;;32.03;33.57;99933.90;436018;1254;138537;-61
2023/04/28 06:02:41;;;;;;;11.60;9.10;;;;;;;34.36;28.68;99934.48;436551;1254;138741;-61
2023/04/28 06:12:47;;;;;;;15.70;9.20;;;;;;;35.33;25.45;99936.52;436916;1254;138223;-61
2023/04/28 06:22:53;;;;;;;7.60;6.80;;;;;;;36.80;22.95;99936.67;436678;1251;139043;-61
2023/04/28 06:32:58;;;;;;;9.10;5.70;;;;;;;35.08;21.70;99931.45;436372;1254;138473;-61
2023/04/28 06:43:04;;;;;;;10.00;5.50;;;;;;;35.25;20.97;99929.48;436772;1251;140242;-61
2023/04/28 06:53:10;;;;;;;5.70;4.70;;;;;;;39.42;19.10;99927.22;436268;1254;138982;-61
2023/04/28 07:03:16;;;;;;;5.60;3.70;;;;;;;41.86;17.34;99920.27;436451;1251;139431;-62
2023/04/28 07:13:22;;;;;;;6.30;3.60;;;;;;;42.37;16.00;99905.63;436418;1254;173875;-60
2023/04/28 07:23:28;;;;;;;5.10;3.20;;;;;;;40.80;15.88;99903.66;436623;1254;139074;-62
2023/04/28 07:33:34;;;;;;;2.80;2.50;;;;;;;39.59;15.12;99899.33;436687;1251;138929;-68
2023/04/28 07:43:40;;;;;;;5.10;3.30;;;;;;;30.93;16.91;99892.05;436339;1254;139392;-67
2023/04/28 08:05:10;;;;;;;7.50;3.50;;;;;;;28.73;18.52;99880.08;436795;1251;138332;-67
2023/04/28 08:15:16;;;;;;;4.50;3.60;;;;;;;28.36;19.04;99872.69;437274;1250;139576;-68
2023/04/28 08:25:24;;;;;;;5.90;3.70;;;;;;;26.09;19.47;99866.73;437039;1251;138391;-68
2023/04/28 08:35:29;;;;;;;5.20;3.20;;;;;;;22.62;21.23;99873.11;436934;1254;139448;-68
2023/04/28 08:45:43;;;;;;;6.20;4.90;;;;;;;21.49;22.76;99863.14;436614;1254;139433;-67
2023/04/28 08:55:50;;;;;;;7.30;4.30;;;;;;;19.31;24.56;99860.84;440149;1250;138951;-68
2023/04/28 09:05:56;;;;;;;4.90;4.40;;;;;;;19.26;24.82;99852.05;437024;1250;138708;-69
2023/04/28 09:16:03;;;;;;;11.60;4.70;;;;;;;18.81;25.69;99847.59;436488;1251;138961;-68
2023/04/28 09:26:09;;;;;;;6.30;4.80;;;;;;;18.37;25.98;99836.08;436959;1254;138667;-66
2023/04/28 09:36:29;;;;;;;4.50;4.10;;;;;;;17.95;26.49;99831.38;437045;1250;138654;-67
2023/04/28 09:46:35;;;;;;;5.30;4.80;;;;;;;17.03;27.42;99817.38;436780;1250;138882;-68
2023/04/28 09:56:44;;;;;;;5.90;3.90;;;;;;;16.95;28.20;99799.33;436416;1251;140116;-66
2023/04/28 10:06:50;;;;;;;5.60;4.60;;;;;;;17.11;27.99;99787.50;436617;1251;138888;-68
2023/04/28 10:16:59;;;;;;;5.70;5.10;;;;;;;16.97;28.05;99776.33;436847;1250;139292;-67
2023/04/28 10:27:11;;;;;;;8.00;5.80;;;;;;;16.43;29.12;99767.35;436847;1256;138953;-66
2023/04/28 10:37:18;;;;;;;7.60;5.60;;;;;;;16.59;29.45;99754.33;436752;1255;138823;-68
2023/04/28 10:47:24;;;;;;;6.00;5.40;;;;;;;16.82;29.44;99744.23;436766;1250;141410;-66
2023/04/28 10:57:29;;;;;;;6.00;5.40;;;;;;;16.17;29.75;99737.80;437125;1251;139598;-67
2023/04/28 11:07:35;;;;;;;5.90;4.70;;;;;;;15.77;30.47;99714.80;437038;1250;138459;-68
2023/04/28 11:17:42;;;;;;;7.40;5.70;;;;;;;15.37;31.10;99709.05;436769;1251;138786;-68
2023/04/28 11:27:48;;;;;;;8.20;5.70;;;;;;;15.15;31.57;99707.86;436739;1254;140629;-68
2023/04/28 11:38:04;;;;;;;8.90;4.70;;;;;;;15.67;31.55;99690.41;437011;1250;140943;-61
2023/04/28 11:48:23;;;;;;;6.50;5.40;;;;;;;16.05;31.41;99681.77;437333;1250;139366;-62
2023/04/28 11:58:29;;;;;;;6.40;5.00;;;;;;;16.54;31.25;99670.17;437367;1253;138494;-61
2023/04/28 12:08:36;;;;;;;6.30;4.90;;;;;;;16.52;30.92;99660.77;437681;1250;138551;-61
2023/04/28 12:18:59;;;;;;;8.40;4.90;;;;;;;16.29;31.15;99651.98;437448;1254;138402;-62
2023/04/28 12:29:05;;;;;;;5.70;3.80;;;;;;;16.28;31.00;99644.34;437174;1251;138761;-61
2023/04/28 12:39:18;;;;;;;6.70;4.60;;;;;;;16.24;31.07;99627.52;437386;1250;138483;-61
2023/04/28 12:49:24;;;;;;;5.90;4.20;;;;;;;15.93;31.02;99609.13;437764;1251;138820;-61
2023/04/28 12:59:32;;;;;;;6.90;4.80;;;;;;;15.51;31.44;99593.30;437665;1250;138892;-60
2023/04/28 13:09:38;;;;;;;12.40;4.30;;;;;;;15.56;31.56;99581.05;437707;1254;138432;-61
2023/04/28 13:19:44;;;;;;;9.00;4.70;;;;;;;15.49;31.54;99575.08;437641;1256;138473;-58
2023/04/28 13:29:51;;;;;;;11.00;4.50;;;;;;;15.69;31.43;99570.94;437437;1255;138863;-61
2023/04/28 13:39:58;;;;;;;7.20;4.30;;;;;;;15.79;31.24;99557.70;437383;1256;138945;-61
2023/04/28 13:50:05;;;;;;;5.80;3.90;;;;;;;15.94;31.15;99547.30;437432;1254;138833;-61
2023/04/28 14:00:13;;;;;;;8.50;3.80;;;;;;;15.82;31.34;99533.42;437473;1254;139634;-61
2023/04/28 14:10:19;;;;;;;5.50;3.60;;;;;;;16.20;31.15;99518.73;436992;1256;138383;-62
2023/04/28 14:20:25;;;;;;;10.00;4.70;;;;;;;16.28;30.97;99507.63;437231;1255;139349;-60
2023/04/28 14:30:32;;;;;;;10.00;4.70;;;;;;;16.21;30.93;99498.99;437616;1251;138576;-61
2023/04/28 14:40:38;;;;;;;4.50;3.80;;;;;;;16.01;31.00;99497.39;437001;1256;140385;-59
2023/04/28 14:50:45;;;;;;;7.90;4.70;;;;;;;15.93;31.12;99494.36;436687;1251;138957;-67
2023/04/28 15:00:52;;;;;;;11.20;5.80;;;;;;;15.79;31.56;99486.44;436689;1255;139921;-67
2023/04/28 15:10:57;;;;;;;8.50;4.40;;;;;;;15.75;31.69;99473.86;436769;1256;139517;-67
2023/04/28 15:21:03;;;;;;;5.70;3.90;;;;;;;15.83;31.83;99472.51;436530;1254;139498;-66
2023/04/28 15:31:09;;;;;;;7.00;4.90;;;;;;;15.92;31.49;99471.70;437190;1255;139832;-66
2023/04/28 15:41:15;;;;;;;7.50;5.80;;;;;;;15.81;31.90;99462.98;436380;1251;139190;-68
2023/04/28 15:51:22;;;;;;;7.10;4.60;;;;;;;15.57;32.07;99453.39;436310;1254;139783;-67
2023/04/28 16:01:28;;;;;;;6.00;4.50;;;;;;;15.31;32.31;99446.96;436626;1251;139435;-66
2023/04/28 16:11:34;;;;;;;6.60;4.00;;;;;;;15.15;32.30;99440.26;436617;1251;138704;-66
2023/04/28 16:21:39;;;;;;;7.20;3.30;;;;;;;15.08;32.34;99433.60;436344;1254;138685;-65
2023/04/28 16:31:45;;;;;;;3.50;2.70;;;;;;;14.95;32.68;99429.08;436305;1253;138972;-66
2023/04/28 16:41:51;;;;;;;5.10;3.10;;;;;;;14.79;32.72;99418.53;436349;1254;138725;-67
2023/04/28 16:51:58;;;;;;;3.40;3.00;;;;;;;14.60;33.00;99409.18;436440;1254;138455;-67
2023/04/28 17:02:05;;;;;;;5.40;3.50;;;;;;;14.33;33.23;99393.42;436606;1251;140887;-66
2023/04/28 17:12:11;;;;;;;6.80;3.50;;;;;;;14.20;33.48;99385.74;437709;1251;138964;-67
2023/04/28 17:22:17;;;;;;;8.40;4.60;;;;;;;13.80;34.08;99386.63;436860;1253;138583;-66
2023/04/28 17:32:22;;;;;;;7.60;5.60;;;;;;;13.36;34.99;99379.56;436127;1251;140349;-66
2023/04/28 17:42:30;;;;;;;7.80;5.30;;;;;;;12.97;35.65;99380.30;436488;1251;138482;-67
2023/04/28 17:52:35;;;;;;;;;;;;;;;12.58;36.60;99380.41;436954;1251;138408;-68
2023/04/28 18:02:40;;;;;;;8.10;6.10;;;;;;;12.21;37.76;99384.59;437235;1251;127103;-66
2023/04/28 18:12:47;;;;;;;11.20;6.90;;;;;;;11.84;38.95;99390.04;436607;1254;138935;-66
2023/04/28 18:22:52;;;;;;;10.40;8.20;;;;;;;11.49;39.67;99393.90;436469;1251;139074;-66
2023/04/28 18:32:58;;;;;;;12.20;8.80;;;;;;;11.25;40.81;99397.50;436606;1251;139888;-66
2023/04/28 18:43:04;;;;;;;13.40;10.30;;;;;;;11.04;41.50;99401.20;436816;1251;140455;-65
2023/04/28 18:53:10;;;;;;;13.40;10.10;;;;;;;10.83;42.43;99401.62;437148;1251;140157;-67
2023/04/28 19:03:16;;;;;;;11.50;9.10;;;;;;;10.60;42.95;99402.26;436418;1251;139579;-67
2023/04/28 19:13:22;;;;;;;14.70;10.70;;;;;;;10.32;43.70;99397.45;436344;1251;337376;-66
2023/04/28 19:23:29;;;;;;;15.00;10.70;;;;;;;10.01;44.21;99397.34;437297;1251;139760;-67
2023/04/28 19:33:34;;;;;;;15.50;11.00;;;;;;;9.73;45.14;99398.73;436361;1250;140600;-67
2023/04/28 19:43:40;;;;;;;14.50;12.00;;;;;;;9.49;45.71;99394.83;436084;1251;140223;-68
2023/04/28 19:53:47;;;;;;;14.80;11.20;;;;;;;9.27;46.11;99398.44;436949;1250;138934;-68
2023/04/28 20:03:54;;;;;;;13.10;10.70;;;;;;;9.11;46.91;99401.69;436888;1251;140351;-68
2023/04/28 20:14:00;;;;;;;14.50;10.60;;;;;;;8.96;47.45;99403.48;436696;1251;140643;-67
2023/04/28 20:24:06;;;;;;;16.70;11.90;;;;;;;8.87;48.08;99407.14;436590;1253;138588;-68
2023/04/28 20:34:13;;;;;;;14.20;10.80;;;;;;;8.72;48.20;99406.62;436934;1250;141147;-68
2023/04/28 20:44:19;;;;;;;17.00;11.40;;;;;;;8.50;48.45;99407.37;436865;1250;140034;-69
2023/04/28 20:54:25;;;;;;;15.60;12.10;;;;;;;8.34;49.54;99408.81;436928;1251;138825;-68
2023/04/28 21:04:31;;;;;;;17.80;11.60;;;;;;;8.19;49.90;99404.23;436944;1250;139475;-67
2023/04/28 21:14:37;;;;;;;16.00;11.80;;;;;;;8.02;50.64;99405.72;436270;1252;139676;-69
2023/04/28 21:24:43;;;;;;;13.40;11.10;;;;;;;7.81;51.10;99406.14;436386;1251;138961;-67
2023/04/28 21:34:49;;;;;;;19.20;12.30;;;;;;;7.62;52.12;99403.70;436276;1251;139498;-68
2023/04/28 21:44:56;;;;;;;17.70;13.00;;;;;;;7.51;52.22;99398.52;436648;1250;139588;-68
2023/04/28 21:55:01;;;;;;;17.60;11.50;;;;;;;7.60;52.56;99397.88;436584;1253;138829;-67
2023/04/28 22:05:08;;;;;;;16.80;11.40;;;;;;;7.60;52.28;99391.80;436439;1251;139964;-67
2023/04/28 22:15:14;;;;;;;15.60;11.90;;;;;;;7.34;53.03;99390.58;436479;1253;139423;-67
2023/04/28 22:25:20;;;;;;;20.80;13.00;;;;;;;7.12;53.66;99383.05;436964;1250;138259;-67
2023/04/28 22:35:26;;;;;;;20.30;12.40;;;;;;;6.92;54.17;99383.04;436338;1250;138538;-62
2023/04/28 22:45:32;;;;;;;14.60;12.20;;;;;;;6.74;54.84;99381.00;435991;1252;139044;-63
2023/04/28 22:55:37;;;;;;;16.90;12.00;;;;;;;6.59;55.18;99380.36;436204;1250;141265;-63
2023/04/28 23:05:43;;;;;;;16.80;11.20;;;;;;;6.49;55.25;99375.83;436651;1251;139318;-63
2023/04/28 23:15:49;;;;;;;14.60;11.90;;;;;;;6.43;55.84;99368.81;436139;1254;140194;-62
2023/04/28 23:25:55;;;;;;;16.10;11.20;;;;;;;6.41;55.94;99362.67;436883;1250;139342;-62
2023/04/28 23:36:01;;;;;;;16.90;11.20;;;;;;;6.32;56.08;99352.48;436564;1251;138470;-63
2023/04/28 23:46:07;;;;;;;14.90;10.40;;;;;;;6.24;56.15;99342.13;436131;1254;139067;-62
2023/04/28 23:56:12;;;;;;;15.90;10.60;;;;;;;6.19;56.21;99327.45;436511;1254;140461;-62
